Crescent City, FL (32112)

19:22 EST le 12 février 2016 (GMT -0500)
PCEM Middleton Burney WeatherSTEM | | Change Station
CLOSE
Current Station
Stations météorologiques personnelles
Location: Crescent City, FL
Altitude: 68 ft
Stations météo à proximité

Alt. 68 ft 29.44 °N, 81.52 °W | Updated 14 minutes ago

Ciel dégagé
Ciel dégagé
66.2 ° F
Paraît 66.2 ° F
N
8.0
Vent Variable Vent de OSO
Gusts 11.0 mph

Aujourd'hui
Haut(e) -- | Bas -- ° F
--% Risque de précip.
Hier
Haut(e) -- | Bas -- ° F
Precip. -- pouce
Pression 30.14 pouce
Visibilité 10.0 Miles terrestres
Nuages Ciel dégagé
Point de rosée 56 ° F
Humidité 70%
Précipitations 0.00 pouce
Profondeur de la couche neigeuse Non disponible.
7:08 AM 6:12 PM
Lune montante, 25% visible
METAR KOMN 122350Z 25012KT 10SM SKC 19/10 A3014 RMK LAST
Pression 30.14 pouce
Visibilité 10.0 Miles terrestres
Nuages Ciel dégagé
Point de rosée 56 ° F
Humidité 70%
Précipitations 0.00 pouce
Profondeur de la couche neigeuse Non disponible.
7:08 AM 6:12 PM
Lune montante, 25% visible
METAR KOMN 122350Z 25012KT 10SM SKC 19/10 A3014 RMK LAST

10-Day Weather Forecast

Almanac

Astronomie

Feb. 12, 2016 Lever Coucher
Temps réel
Crépuscule civil
Crépuscule nautique
Crépuscule astronomique
Lune
Durée de lumière visible
Longueur du jour
Tomorrow will be .
, % of the Moon is Illuminated

Extrêmes aujourd'hui

State Highs State Lows

Community

WunderPhotos

Upload Photos

1,892,439 Photos téléchargées !

WunderBlog® & News

Nearby

Qualité de l'air

  Qualité de l'air Indice de la qualité de l'air Polluant
Not available.

Épaisseur de neige

Station Depth Altitude

Activité sismique

Ville Distance Mag. Time & Date
Minimum magnitude displayed is 2.5.

Températures des eaux côtières

Lieu Température

Stations

Stations météo à proximité

Emplacement de la station Température Refroidissement éolien Point de rosée Humidité Vent Precip. Alt. Mise à jour Type
                   

Watches & Warnings

There are currently no watches in effect.